Geeville, Mississippi
Current Conditions -  °F | °C
As of 9:53 AM on Friday 21 Nov 2014 (Local Time) from KTUP Reporting Station
Scattered Clouds Scattered Clouds  
Wind Chill: 12°   Ceiling: Unl
Heat Index: 12°   Visibility: 10mi
Dew Point:   Wind: 7mph
Humidity: 47%   Direction: 150°SSE
Pressure: 30.38"   Gusts: NA
Location:  34.5357°N, 88.6348°W
Report Text: KTUP 211553Z 15006KT 10SM SCT060 12/01 A3038 RMK AO2 SLP287 T01220011
Loading
Personal Weather Stations






























Interactive Weather Map New forecast layout! Learn more

10-Day Weather Forecast

Advertisements
Track Severe Weather on mobile